ΕΜΥ, Εθνική Μετεωρολογική Υπηρεσία - Δελτία Καιρού, Προγνώσεις

ΑΕΡΟΝΑΥΤΙΛΙΑ

GREEK AIRPORTS CODES

LGMT 301050Z 09005KT 9999 FEW025 18/10 Q1014=

EUROPEAN AIRPORTS CODES

EDDB 301120Z 21007KT 9999 FEW018 BKN037 02/00 Q1024 NOSIG=